createdAt,value
2022-11-16T00:00:48.952Z,73.60
2022-11-16T00:01:52.319Z,74.31
2022-11-16T00:02:55.359Z,73.95
2022-11-16T00:03:59.811Z,73.56
2022-11-16T00:05:02.713Z,73.33
2022-11-16T00:06:06.688Z,73.68
2022-11-16T00:07:10.107Z,74.12
2022-11-16T00:08:12.170Z,73.23
2022-11-16T00:09:23.999Z,73.32
2022-11-16T00:10:25.841Z,73.49
2022-11-16T00:11:28.590Z,73.36
2022-11-16T00:12:30.376Z,74.05
2022-11-16T00:13:33.620Z,73.84
2022-11-16T00:14:39.527Z,73.57
2022-11-16T00:15:41.374Z,73.19
2022-11-16T00:16:44.229Z,73.51
2022-11-16T00:17:47.372Z,73.70
2022-11-16T00:18:50.227Z,74.03
2022-11-16T00:19:52.117Z,73.31
2022-11-16T00:20:55.003Z,73.44
2022-11-16T00:21:57.859Z,74.21
2022-11-16T00:22:59.740Z,73.25
2022-11-16T00:24:03.136Z,73.26
2022-11-16T00:25:06.216Z,74.41
2022-11-16T00:26:11.034Z,73.31
2022-11-16T00:27:12.980Z,74.17
2022-11-16T00:28:16.293Z,74.21
2022-11-16T00:29:20.456Z,73.98
2022-11-16T00:30:23.397Z,73.86
2022-11-16T00:31:25.248Z,73.86
2022-11-16T00:32:28.027Z,73.68
2022-11-16T00:33:31.533Z,73.38
2022-11-16T00:34:34.437Z,73.72
2022-11-16T00:35:38.966Z,74.06
2022-11-16T00:36:41.877Z,73.75
2022-11-16T00:37:44.731Z,73.88
2022-11-16T00:38:51.942Z,74.23
2022-11-16T00:39:55.511Z,73.75
2022-11-16T00:40:57.404Z,73.52
2022-11-16T00:42:00.218Z,73.97
2022-11-16T00:43:03.672Z,74.02
2022-11-16T00:44:06.700Z,73.92
2022-11-16T00:45:09.921Z,73.60
2022-11-16T00:46:12.842Z,73.78
2022-11-16T00:47:14.725Z,73.59
2022-11-16T00:48:17.842Z,73.26
2022-11-16T00:49:21.017Z,73.15
2022-11-16T00:50:24.025Z,73.80
2022-11-16T00:51:25.842Z,73.35
2022-11-16T00:52:28.923Z,74.05
2022-11-16T00:53:31.097Z,73.60
2022-11-16T00:54:34.040Z,74.11
2022-11-16T00:55:36.077Z,73.31
2022-11-16T00:56:40.108Z,74.02
2022-11-16T00:57:42.229Z,73.53
2022-11-16T00:58:45.980Z,73.59
2022-11-16T00:59:47.972Z,73.24
2022-11-16T01:00:50.930Z,73.33
2022-11-16T01:01:52.925Z,73.31
2022-11-16T01:02:55.806Z,73.66
2022-11-16T01:03:57.740Z,73.24
2022-11-16T01:05:01.934Z,73.29
2022-11-16T01:06:07.237Z,73.75
2022-11-16T01:07:10.214Z,73.29
2022-11-16T01:08:12.132Z,74.00
2022-11-16T01:09:14.954Z,74.18
2022-11-16T01:10:19.518Z,74.17
2022-11-16T01:11:40.092Z,73.91
2022-11-16T01:12:42.994Z,73.76
2022-11-16T01:13:44.858Z,74.16
2022-11-16T01:14:49.886Z,73.71
2022-11-16T01:15:52.282Z,73.71
2022-11-16T01:16:55.162Z,73.56
2022-11-16T01:17:57.313Z,74.02
2022-11-16T01:19:00.326Z,74.29
2022-11-16T01:20:06.110Z,73.81
2022-11-16T01:21:09.685Z,73.70
2022-11-16T01:22:11.550Z,73.50
2022-11-16T01:23:14.623Z,73.42
2022-11-16T01:24:16.461Z,74.18
2022-11-16T01:25:19.676Z,73.52
2022-11-16T01:26:21.679Z,73.42
2022-11-16T01:27:25.834Z,73.30
2022-11-16T01:28:28.614Z,73.40
2022-11-16T01:29:32.312Z,74.00
2022-11-16T01:30:36.425Z,73.30
2022-11-16T01:31:43.475Z,73.72
2022-11-16T01:32:45.327Z,73.36
2022-11-16T01:33:48.461Z,74.04
2022-11-16T01:34:57.775Z,73.78
2022-11-16T01:36:14.746Z,73.52
2022-11-16T01:37:18.687Z,73.70
2022-11-16T01:38:20.662Z,73.96
2022-11-16T01:39:23.667Z,73.57
2022-11-16T01:40:30.374Z,73.81
2022-11-16T01:41:33.799Z,74.19
2022-11-16T01:42:40.591Z,73.60
2022-11-16T01:43:56.395Z,73.95
2022-11-16T01:45:07.044Z,74.29
2022-11-16T01:46:10.230Z,74.25
2022-11-16T01:47:15.993Z,73.98
2022-11-16T01:48:23.398Z,73.69
2022-11-16T01:49:29.053Z,73.86
2022-11-16T01:50:33.210Z,74.03
2022-11-16T01:51:37.968Z,74.44
2022-11-16T01:52:47.393Z,73.96
2022-11-16T01:53:49.920Z,74.13
2022-11-16T01:54:55.251Z,73.75
2022-11-16T01:55:59.955Z,73.62
2022-11-16T01:57:24.448Z,74.36
2022-11-16T01:58:35.134Z,74.83
2022-11-16T01:59:51.381Z,74.49
2022-11-16T02:00:55.728Z,74.23
2022-11-16T02:02:10.025Z,73.56
2022-11-16T02:03:12.178Z,74.25
2022-11-16T02:04:23.052Z,73.34
2022-11-16T02:05:40.094Z,74.03
2022-11-16T02:07:01.396Z,74.26
2022-11-16T02:08:38.607Z,74.34
2022-11-16T02:09:58.954Z,74.10
2022-11-16T02:11:23.455Z,73.41
2022-11-16T02:12:56.521Z,74.07
2022-11-16T02:14:21.306Z,74.30
2022-11-16T02:15:30.315Z,74.18
2022-11-16T02:17:03.165Z,73.65
2022-11-16T02:18:26.413Z,73.82
2022-11-16T02:19:53.852Z,74.53
2022-11-16T02:21:09.582Z,74.09
2022-11-16T02:22:28.099Z,73.72
2022-11-16T02:23:49.088Z,74.92
2022-11-16T02:25:00.213Z,75.05
2022-11-16T02:26:25.213Z,74.28
2022-11-16T02:27:53.741Z,74.95
2022-11-16T02:29:16.442Z,74.64
2022-11-16T02:30:21.316Z,74.72
2022-11-16T02:31:27.381Z,74.89
2022-11-16T02:32:37.072Z,75.00
2022-11-16T02:33:42.293Z,75.66
2022-11-16T02:34:51.324Z,75.67
2022-11-16T02:35:56.850Z,74.98
2022-11-16T02:37:03.543Z,74.73
2022-11-16T02:38:09.697Z,74.64
2022-11-16T02:39:17.987Z,74.45
2022-11-16T02:40:23.596Z,74.53
2022-11-16T02:41:29.570Z,74.02
2022-11-16T02:42:35.967Z,74.02
2022-11-16T02:43:43.769Z,74.72
2022-11-16T02:44:51.005Z,74.44
2022-11-16T02:45:57.572Z,74.69
2022-11-16T02:47:05.071Z,74.06
2022-11-16T02:48:12.051Z,74.38
2022-11-16T02:49:18.264Z,75.17
2022-11-16T02:50:23.357Z,74.17
2022-11-16T02:51:27.725Z,74.17
2022-11-16T02:52:31.631Z,74.42
2022-11-16T02:53:39.026Z,74.17
2022-11-16T02:54:42.079Z,74.36
2022-11-16T02:55:45.565Z,74.73
2022-11-16T02:56:55.271Z,74.18
2022-11-16T02:58:02.896Z,74.42
2022-11-16T02:59:09.490Z,73.98
2022-11-16T03:00:20.665Z,74.36
2022-11-16T03:01:27.599Z,73.93
2022-11-16T03:02:35.897Z,74.39
2022-11-16T03:03:43.177Z,73.88
2022-11-16T03:04:49.661Z,74.82
2022-11-16T03:05:56.072Z,73.98
2022-11-16T03:07:03.131Z,74.00
2022-11-16T03:08:17.700Z,74.72
2022-11-16T03:09:24.827Z,74.37
2022-11-16T03:10:46.077Z,74.72
2022-11-16T03:12:01.434Z,74.26
2022-11-16T03:13:10.051Z,74.70
2022-11-16T03:14:15.984Z,74.69
2022-11-16T03:15:20.533Z,74.65
2022-11-16T03:16:29.434Z,74.14
2022-11-16T03:17:38.058Z,74.30
2022-11-16T03:18:41.933Z,74.08
2022-11-16T03:19:49.144Z,74.33
2022-11-16T03:20:57.612Z,74.97
2022-11-16T03:22:07.176Z,75.16
2022-11-16T03:23:12.238Z,74.67
2022-11-16T03:24:18.293Z,73.83
2022-11-16T03:25:25.981Z,74.94
2022-11-16T03:26:35.134Z,74.84
2022-11-16T03:27:40.193Z,74.57
2022-11-16T03:28:52.546Z,74.87
2022-11-16T03:30:02.263Z,74.69
2022-11-16T03:31:13.703Z,74.64
2022-11-16T03:32:21.325Z,74.88
2022-11-16T03:33:30.134Z,74.42
2022-11-16T03:34:36.705Z,74.20
2022-11-16T03:35:46.901Z,74.74
2022-11-16T03:36:51.010Z,75.16
2022-11-16T03:37:58.953Z,75.08
2022-11-16T03:39:06.506Z,74.92
2022-11-16T03:40:12.772Z,74.30
2022-11-16T03:41:15.335Z,74.50
2022-11-16T03:42:19.283Z,74.33
2022-11-16T03:43:21.473Z,74.53
2022-11-16T03:44:24.517Z,74.72
2022-11-16T03:45:26.840Z,74.03
2022-11-16T03:46:31.447Z,74.15
2022-11-16T03:47:34.093Z,74.64
2022-11-16T03:48:38.462Z,74.98
2022-11-16T03:49:47.676Z,74.09
2022-11-16T03:50:53.738Z,74.83
2022-11-16T03:51:56.177Z,74.42
2022-11-16T03:52:59.290Z,74.88
2022-11-16T03:54:01.814Z,74.30
2022-11-16T03:55:06.233Z,75.02
2022-11-16T03:56:09.330Z,74.80
2022-11-16T03:57:15.619Z,74.43
2022-11-16T03:58:20.245Z,75.06
2022-11-16T03:59:23.530Z,74.87
2022-11-16T04:00:25.404Z,74.76
2022-11-16T04:01:31.186Z,74.94
2022-11-16T04:02:33.593Z,74.52
2022-11-16T04:03:36.545Z,74.67
2022-11-16T04:04:57.301Z,75.05
2022-11-16T04:06:17.635Z,75.00
2022-11-16T04:07:38.430Z,75.17
2022-11-16T04:09:00.900Z,74.78
2022-11-16T04:10:23.320Z,75.10
2022-11-16T04:11:44.179Z,74.73
2022-11-16T04:13:05.020Z,74.22
2022-11-16T04:14:32.423Z,74.52
2022-11-16T04:15:53.311Z,74.69
2022-11-16T04:17:14.970Z,75.21
2022-11-16T04:18:37.639Z,74.48
2022-11-16T04:19:58.539Z,74.49
2022-11-16T04:21:21.215Z,75.10
2022-11-16T04:22:47.809Z,74.73
2022-11-16T04:24:08.443Z,74.71
2022-11-16T04:25:15.554Z,74.81
2022-11-16T04:26:17.590Z,74.98
2022-11-16T04:27:44.583Z,74.96
2022-11-16T04:28:46.562Z,74.47
2022-11-16T04:29:50.178Z,75.03
2022-11-16T04:31:14.781Z,74.83
2022-11-16T04:32:41.303Z,75.22
2022-11-16T04:34:01.759Z,74.79
2022-11-16T04:35:22.522Z,74.83
2022-11-16T04:36:42.769Z,75.51
2022-11-16T04:37:49.999Z,75.11
2022-11-16T04:38:57.254Z,74.55
2022-11-16T04:40:00.265Z,75.39
2022-11-16T04:41:02.118Z,74.61
2022-11-16T04:42:16.007Z,74.99
2022-11-16T04:43:22.097Z,74.92
2022-11-16T04:44:29.740Z,74.92
2022-11-16T04:45:51.094Z,74.96
2022-11-16T04:47:07.350Z,75.31
2022-11-16T04:48:14.649Z,74.72
2022-11-16T04:49:16.513Z,74.80
2022-11-16T04:50:21.009Z,74.82
2022-11-16T04:51:24.407Z,75.62
2022-11-16T04:52:27.212Z,74.59
2022-11-16T04:53:30.661Z,75.00
2022-11-16T04:54:47.992Z,74.61
2022-11-16T04:55:51.062Z,75.32
2022-11-16T04:56:56.012Z,75.11
2022-11-16T04:57:59.034Z,74.65
2022-11-16T04:59:02.368Z,74.47
2022-11-16T05:00:07.196Z,75.02
2022-11-16T05:01:12.002Z,75.03
2022-11-16T05:02:15.201Z,74.90
2022-11-16T05:03:28.019Z,75.37
2022-11-16T05:04:30.800Z,75.03
2022-11-16T05:05:34.485Z,75.11
2022-11-16T05:06:36.774Z,75.09
2022-11-16T05:07:39.826Z,75.42
2022-11-16T05:08:47.571Z,75.15
2022-11-16T05:09:50.938Z,75.61
2022-11-16T05:10:53.061Z,75.08
2022-11-16T05:11:56.204Z,75.65
2022-11-16T05:12:58.192Z,75.48
2022-11-16T05:14:02.895Z,76.01
2022-11-16T05:15:06.915Z,75.87
2022-11-16T05:16:10.088Z,75.49
2022-11-16T05:17:12.757Z,75.74
2022-11-16T05:18:15.621Z,75.15
2022-11-16T05:19:37.681Z,75.15
2022-11-16T05:20:58.410Z,75.83
2022-11-16T05:22:00.766Z,75.53
2022-11-16T05:23:03.986Z,75.17
2022-11-16T05:24:24.340Z,75.15
2022-11-16T05:25:26.884Z,75.75
2022-11-16T05:26:29.728Z,75.35
2022-11-16T05:27:31.674Z,75.85
2022-11-16T05:28:35.594Z,75.14
2022-11-16T05:29:38.631Z,75.95
2022-11-16T05:30:41.696Z,75.94
2022-11-16T05:31:44.635Z,75.82
2022-11-16T05:32:47.778Z,75.97
2022-11-16T05:33:51.402Z,75.61
2022-11-16T05:34:57.195Z,75.82
2022-11-16T05:36:00.136Z,75.62
2022-11-16T05:37:03.437Z,76.10
2022-11-16T05:38:06.788Z,75.26
2022-11-16T05:39:13.308Z,75.60
2022-11-16T05:40:17.604Z,75.96
2022-11-16T05:41:25.737Z,75.38
2022-11-16T05:42:29.335Z,76.10
2022-11-16T05:43:31.610Z,75.60
2022-11-16T05:44:47.290Z,76.11
2022-11-16T05:45:50.125Z,75.93
2022-11-16T05:46:53.302Z,76.75
2022-11-16T05:47:55.076Z,76.42
2022-11-16T05:48:58.107Z,76.63
2022-11-16T05:50:02.712Z,76.38
2022-11-16T05:51:08.987Z,75.57
2022-11-16T05:52:11.870Z,76.20
2022-11-16T05:53:14.455Z,76.16
2022-11-16T05:54:19.798Z,76.28
2022-11-16T05:55:21.726Z,76.02
2022-11-16T05:56:24.708Z,75.43
2022-11-16T05:57:29.134Z,76.77
2022-11-16T05:58:31.127Z,76.24
2022-11-16T05:59:36.054Z,75.81
2022-11-16T06:00:39.146Z,75.88
2022-11-16T06:01:44.425Z,76.14
2022-11-16T06:02:46.419Z,76.26
2022-11-16T06:03:57.368Z,76.96
2022-11-16T06:04:59.210Z,76.59
2022-11-16T06:06:04.331Z,76.50
2022-11-16T06:07:06.745Z,75.74
2022-11-16T06:08:11.886Z,75.75
2022-11-16T06:09:14.174Z,76.12
2022-11-16T06:10:17.020Z,76.75
2022-11-16T06:11:21.943Z,76.10
2022-11-16T06:12:24.767Z,76.30
2022-11-16T06:13:26.581Z,76.32
2022-11-16T06:14:33.072Z,76.58
2022-11-16T06:15:37.127Z,76.01
2022-11-16T06:16:40.251Z,75.58
2022-11-16T06:17:44.341Z,76.10
2022-11-16T06:18:48.883Z,76.34
2022-11-16T06:19:51.755Z,76.12
2022-11-16T06:20:54.893Z,76.37
2022-11-16T06:21:59.476Z,77.02
2022-11-16T06:23:03.325Z,76.89
2022-11-16T06:24:09.118Z,76.30
2022-11-16T06:25:11.614Z,76.97
2022-11-16T06:26:18.309Z,76.49
2022-11-16T06:27:21.441Z,77.49
2022-11-16T06:28:25.001Z,76.42
2022-11-16T06:29:26.884Z,78.32
2022-11-16T06:30:30.136Z,78.48
2022-11-16T06:31:32.093Z,77.31
2022-11-16T06:32:37.383Z,76.78
2022-11-16T06:33:40.691Z,77.45
2022-11-16T06:34:50.835Z,76.71
2022-11-16T06:35:52.806Z,76.86
2022-11-16T06:37:01.096Z,77.31
2022-11-16T06:38:03.600Z,77.21
2022-11-16T06:39:06.549Z,77.39
2022-11-16T06:40:12.146Z,77.03
2022-11-16T06:41:18.434Z,77.97
2022-11-16T06:42:23.838Z,77.28
2022-11-16T06:43:28.493Z,76.77
2022-11-16T06:44:31.830Z,77.69
2022-11-16T06:45:36.930Z,77.33
2022-11-16T06:46:40.919Z,77.19
2022-11-16T06:47:42.779Z,77.58
2022-11-16T06:48:45.699Z,77.49
2022-11-16T06:49:49.015Z,77.65
2022-11-16T06:50:56.951Z,78.94
2022-11-16T06:52:01.139Z,78.99
2022-11-16T06:53:03.051Z,77.81
2022-11-16T06:54:06.699Z,77.67
2022-11-16T06:55:09.377Z,78.44
2022-11-16T06:56:15.667Z,78.59
2022-11-16T06:57:29.483Z,78.57
2022-11-16T06:58:33.562Z,78.05
2022-11-16T06:59:35.823Z,79.55
2022-11-16T07:00:39.214Z,78.87
2022-11-16T07:01:42.954Z,79.53
2022-11-16T07:02:47.910Z,79.50
2022-11-16T07:03:54.066Z,80.34
2022-11-16T07:05:02.150Z,79.47
2022-11-16T07:06:09.269Z,79.85
2022-11-16T07:07:14.067Z,79.54
2022-11-16T07:08:17.010Z,79.33
2022-11-16T07:09:18.928Z,78.85
2022-11-16T07:10:23.109Z,79.07
2022-11-16T07:11:24.949Z,79.34
2022-11-16T07:12:28.366Z,79.42
2022-11-16T07:13:33.649Z,79.34
2022-11-16T07:14:35.544Z,79.97
2022-11-16T07:15:40.226Z,79.70
2022-11-16T07:16:43.929Z,80.36
2022-11-16T07:17:47.707Z,79.93
2022-11-16T07:18:50.738Z,79.43
2022-11-16T07:19:52.921Z,79.82
2022-11-16T07:20:55.788Z,79.43
2022-11-16T07:21:57.787Z,79.60
2022-11-16T07:23:02.439Z,80.15
2022-11-16T07:24:04.997Z,80.61
2022-11-16T07:25:09.434Z,80.32
2022-11-16T07:26:12.090Z,80.14
2022-11-16T07:27:24.114Z,79.43
2022-11-16T07:28:29.585Z,79.45
2022-11-16T07:29:32.328Z,79.45
2022-11-16T07:30:53.561Z,79.95
2022-11-16T07:32:01.899Z,80.35
2022-11-16T07:33:25.063Z,80.89
2022-11-16T07:34:45.232Z,81.28
2022-11-16T07:35:51.600Z,81.62
2022-11-16T07:36:53.619Z,81.49
2022-11-16T07:37:56.611Z,81.29
2022-11-16T07:38:59.953Z,80.50
2022-11-16T07:40:03.032Z,79.80
2022-11-16T07:41:07.780Z,80.30
2022-11-16T07:42:13.523Z,79.11
2022-11-16T07:43:39.966Z,80.13
2022-11-16T07:44:47.473Z,79.50
2022-11-16T07:45:52.425Z,80.70
2022-11-16T07:46:55.151Z,80.36
2022-11-16T07:47:58.216Z,80.63
2022-11-16T07:49:19.440Z,81.38
2022-11-16T07:50:28.382Z,81.80
2022-11-16T07:51:32.147Z,81.57
2022-11-16T07:52:53.207Z,80.99
2022-11-16T07:53:56.461Z,81.51
2022-11-16T07:55:01.741Z,81.91
2022-11-16T07:56:06.560Z,81.58
2022-11-16T07:57:10.100Z,82.42
2022-11-16T07:58:15.838Z,82.26
2022-11-16T07:59:18.360Z,81.46
2022-11-16T08:00:22.514Z,81.72
2022-11-16T08:01:34.428Z,81.91
2022-11-16T08:02:37.410Z,82.59
2022-11-16T08:03:41.345Z,81.92
2022-11-16T08:04:44.383Z,82.23
2022-11-16T08:05:46.817Z,82.74
2022-11-16T08:06:51.696Z,83.39
2022-11-16T08:07:56.610Z,82.74
2022-11-16T08:09:01.281Z,83.73
2022-11-16T08:10:07.821Z,83.48
2022-11-16T08:11:11.464Z,83.75
2022-11-16T08:12:14.756Z,83.71
2022-11-16T08:13:16.749Z,84.14
2022-11-16T08:14:20.175Z,84.16
2022-11-16T08:15:26.141Z,85.04
2022-11-16T08:16:29.367Z,85.16
2022-11-16T08:17:41.863Z,84.43
2022-11-16T08:18:46.940Z,84.47
2022-11-16T08:19:51.944Z,84.53
2022-11-16T08:20:54.165Z,85.69
2022-11-16T08:21:58.167Z,84.98
2022-11-16T08:23:03.448Z,85.45
2022-11-16T08:24:10.595Z,84.89
2022-11-16T08:25:17.770Z,85.71
2022-11-16T08:26:22.030Z,85.01
2022-11-16T08:27:32.728Z,84.51
2022-11-16T08:28:37.227Z,84.76
2022-11-16T08:29:40.121Z,84.88
2022-11-16T08:30:46.365Z,84.68
2022-11-16T08:31:51.342Z,85.31
2022-11-16T08:32:55.395Z,84.75
2022-11-16T08:34:00.887Z,85.53
2022-11-16T08:35:04.527Z,85.53
2022-11-16T08:36:13.795Z,85.63
2022-11-16T08:37:17.590Z,86.12
2022-11-16T08:38:21.233Z,85.95
2022-11-16T08:39:25.627Z,85.63
2022-11-16T08:40:29.224Z,85.64
2022-11-16T08:41:35.746Z,86.23
2022-11-16T08:42:43.270Z,86.49
2022-11-16T08:43:50.506Z,86.18
2022-11-16T08:44:55.778Z,85.69
2022-11-16T08:45:58.368Z,86.18
2022-11-16T08:47:01.371Z,86.86
2022-11-16T08:48:10.887Z,86.58
2022-11-16T08:49:14.093Z,87.25
2022-11-16T08:50:16.571Z,86.92
2022-11-16T08:51:20.749Z,87.36
2022-11-16T08:52:30.364Z,87.40
2022-11-16T08:53:33.443Z,88.10
2022-11-16T08:54:36.430Z,87.39
2022-11-16T08:55:39.834Z,88.03
2022-11-16T08:56:42.932Z,87.70
2022-11-16T08:57:45.605Z,87.08
2022-11-16T08:58:58.144Z,87.01
2022-11-16T09:00:01.810Z,87.60
2022-11-16T09:01:09.942Z,87.09
2022-11-16T09:02:12.787Z,87.81
2022-11-16T09:03:14.822Z,86.78
2022-11-16T09:04:18.712Z,87.53
2022-11-16T09:05:20.562Z,87.51
2022-11-16T09:06:24.587Z,87.30
2022-11-16T09:07:26.753Z,86.91
2022-11-16T09:08:29.703Z,87.10
2022-11-16T09:09:32.731Z,87.38
2022-11-16T09:10:34.581Z,87.16
2022-11-16T09:11:39.571Z,87.55
2022-11-16T09:12:41.791Z,87.90
2022-11-16T09:13:45.216Z,87.75
2022-11-16T09:14:48.287Z,87.32
2022-11-16T09:15:56.378Z,87.64
2022-11-16T09:16:59.146Z,87.27
2022-11-16T09:18:01.071Z,86.79
2022-11-16T09:19:03.985Z,87.69
2022-11-16T09:20:07.187Z,86.65
2022-11-16T09:21:10.024Z,86.81
2022-11-16T09:22:12.872Z,86.82
2022-11-16T09:23:14.896Z,86.68
2022-11-16T09:24:17.703Z,86.72
2022-11-16T09:25:21.040Z,87.19
2022-11-16T09:26:24.895Z,87.05
2022-11-16T09:27:28.219Z,87.38
2022-11-16T09:28:31.355Z,87.85
2022-11-16T09:29:33.344Z,88.03
2022-11-16T09:30:36.326Z,88.30
2022-11-16T09:31:39.330Z,88.08
2022-11-16T09:32:41.223Z,87.18
2022-11-16T09:33:47.061Z,87.80
2022-11-16T09:34:50.076Z,87.98
2022-11-16T09:35:51.997Z,88.29
2022-11-16T09:36:55.166Z,87.53
2022-11-16T09:37:57.169Z,87.78
2022-11-16T09:40:23.268Z,88.34
2022-11-16T09:41:43.813Z,87.42
2022-11-16T09:43:08.876Z,87.81
2022-11-16T09:44:26.590Z,88.45
2022-11-16T09:45:36.899Z,89.00
2022-11-16T09:46:43.892Z,87.79
2022-11-16T09:47:49.790Z,88.73
2022-11-16T09:48:55.019Z,88.56
2022-11-16T09:50:03.578Z,89.05
2022-11-16T09:51:09.983Z,88.71
2022-11-16T09:52:24.606Z,88.27
2022-11-16T09:53:34.985Z,89.27
2022-11-16T09:54:41.869Z,89.17
2022-11-16T09:55:49.375Z,89.25
2022-11-16T09:56:57.153Z,88.67
2022-11-16T09:58:03.246Z,89.10
2022-11-16T09:59:18.159Z,89.82
2022-11-16T10:00:23.639Z,89.79
2022-11-16T10:01:30.447Z,89.80
2022-11-16T10:02:37.088Z,89.77
2022-11-16T10:03:44.546Z,89.24
2022-11-16T10:04:57.903Z,89.44
2022-11-16T10:06:04.370Z,88.50
2022-11-16T10:07:13.900Z,89.42
2022-11-16T10:08:23.025Z,89.13
2022-11-16T10:09:26.841Z,88.57
2022-11-16T10:10:35.013Z,88.70
2022-11-16T10:12:18.059Z,89.15
2022-11-16T10:13:36.603Z,89.88
2022-11-16T10:15:06.623Z,89.93
2022-11-16T10:16:19.570Z,90.37
2022-11-16T10:17:31.793Z,90.37
2022-11-16T10:18:52.581Z,90.46
2022-11-16T10:19:56.950Z,89.49
2022-11-16T10:21:17.874Z,89.68
2022-11-16T10:22:36.035Z,90.15
2022-11-16T10:23:55.012Z,90.18
2022-11-16T10:24:58.219Z,89.54
2022-11-16T10:26:13.001Z,89.17
2022-11-16T10:27:28.801Z,89.93
2022-11-16T10:29:05.098Z,90.59
2022-11-16T10:30:12.087Z,90.06
2022-11-16T10:31:21.629Z,89.86
2022-11-16T10:32:28.893Z,90.42
2022-11-16T10:33:37.098Z,89.64
2022-11-16T10:34:47.132Z,90.22
2022-11-16T10:35:53.644Z,89.94
2022-11-16T10:37:03.195Z,89.90
2022-11-16T10:38:14.196Z,89.64
2022-11-16T10:39:19.293Z,89.93
2022-11-16T10:40:24.948Z,90.41
2022-11-16T10:41:36.470Z,90.15
2022-11-16T10:42:39.306Z,90.33
2022-11-16T10:43:44.392Z,90.84
2022-11-16T10:44:50.920Z,90.27
2022-11-16T10:45:59.961Z,90.25
2022-11-16T10:47:05.024Z,90.48
2022-11-16T10:48:18.833Z,89.90
2022-11-16T10:49:29.266Z,89.95
2022-11-16T10:50:37.083Z,90.47
2022-11-16T10:51:39.902Z,90.88
2022-11-16T10:52:41.813Z,89.97
2022-11-16T10:53:44.981Z,89.92
2022-11-16T10:54:46.852Z,89.96
2022-11-16T10:56:01.876Z,89.93
2022-11-16T10:57:08.861Z,90.60
2022-11-16T10:58:10.795Z,90.47
2022-11-16T10:59:16.326Z,90.50
2022-11-16T11:00:34.594Z,91.04
2022-11-16T11:01:41.074Z,90.61
2022-11-16T11:02:48.453Z,90.12
2022-11-16T11:03:51.417Z,90.85
2022-11-16T11:05:03.236Z,90.70
2022-11-16T11:06:08.565Z,90.83
2022-11-16T11:07:25.415Z,89.97
2022-11-16T11:08:31.485Z,91.13
2022-11-16T11:09:36.885Z,90.66
2022-11-16T11:10:42.313Z,90.78
2022-11-16T11:12:16.165Z,90.21
2022-11-16T11:13:26.330Z,90.85
2022-11-16T11:14:28.416Z,91.26
2022-11-16T11:15:31.652Z,90.71
2022-11-16T11:16:33.713Z,90.38
2022-11-16T11:17:39.660Z,91.11
2022-11-16T11:18:42.913Z,90.55
2022-11-16T11:19:45.745Z,91.12
2022-11-16T11:20:51.058Z,91.18
2022-11-16T11:21:57.308Z,90.31
2022-11-16T11:23:03.700Z,90.16
2022-11-16T11:24:42.407Z,90.92
2022-11-16T11:25:33.347Z,90.35
2022-11-16T11:26:37.503Z,90.97
2022-11-16T11:27:40.820Z,90.41
2022-11-16T11:28:48.037Z,91.55
2022-11-16T11:29:55.044Z,91.16
2022-11-16T11:31:01.572Z,90.85
2022-11-16T11:32:07.501Z,91.36
2022-11-16T11:33:13.927Z,91.07
2022-11-16T11:34:20.270Z,90.21
2022-11-16T11:35:24.987Z,90.88
2022-11-16T11:36:33.060Z,90.67
2022-11-16T11:37:40.126Z,90.37
2022-11-16T11:38:57.936Z,91.25
2022-11-16T11:40:22.935Z,91.35
2022-11-16T11:41:25.139Z,90.65
2022-11-16T11:42:28.617Z,90.80
2022-11-16T11:43:33.600Z,90.32
2022-11-16T11:44:50.281Z,90.20
2022-11-16T11:45:58.528Z,90.31
2022-11-16T11:48:55.317Z,90.66
2022-11-16T11:50:07.896Z,89.68
2022-11-16T11:51:16.006Z,90.78
2022-11-16T11:52:25.477Z,90.16
2022-11-16T11:53:45.003Z,89.79
2022-11-16T11:54:50.696Z,90.64
2022-11-16T11:55:57.813Z,89.76
2022-11-16T11:57:04.822Z,90.06
2022-11-16T11:58:15.448Z,90.58
2022-11-16T11:59:22.544Z,89.77
2022-11-16T12:00:26.116Z,90.46
2022-11-16T12:01:50.330Z,90.48
2022-11-16T12:03:23.628Z,89.62
2022-11-16T12:04:57.546Z,90.72
2022-11-16T12:06:09.892Z,90.88
2022-11-16T12:07:22.127Z,89.86
2022-11-16T12:08:41.742Z,90.67
2022-11-16T12:09:52.713Z,90.42
2022-11-16T12:11:02.858Z,90.73
2022-11-16T12:12:21.073Z,90.58
2022-11-16T12:13:47.332Z,89.53
2022-11-16T12:15:04.154Z,90.39
2022-11-16T12:16:15.312Z,89.63
2022-11-16T12:17:28.305Z,89.74
2022-11-16T12:18:47.381Z,90.23
2022-11-16T12:20:03.372Z,89.42
2022-11-16T12:21:13.461Z,89.51
2022-11-16T12:22:35.024Z,89.96
2022-11-16T12:23:51.433Z,89.76
2022-11-16T12:25:06.965Z,88.99
2022-11-16T12:26:19.652Z,89.87
2022-11-16T12:27:32.850Z,89.54
2022-11-16T12:28:52.476Z,89.73
2022-11-16T12:30:04.456Z,89.07
2022-11-16T12:31:25.458Z,90.01
2022-11-16T12:32:43.550Z,89.23
2022-11-16T12:33:56.182Z,90.08
2022-11-16T12:35:23.038Z,89.94
2022-11-16T12:36:34.491Z,89.47
2022-11-16T12:37:46.579Z,89.17
2022-11-16T12:39:01.940Z,89.19
2022-11-16T12:40:24.511Z,90.10
2022-11-16T12:41:47.577Z,89.17
2022-11-16T12:42:56.791Z,89.56
2022-11-16T12:44:01.710Z,89.43
2022-11-16T12:45:19.110Z,89.66
2022-11-16T12:46:30.012Z,89.74
2022-11-16T12:47:43.749Z,89.49
2022-11-16T12:49:18.056Z,88.52
2022-11-16T12:50:38.010Z,89.36
2022-11-16T12:51:56.615Z,88.57
2022-11-16T12:53:17.281Z,88.44
2022-11-16T12:54:34.525Z,88.74
2022-11-16T12:55:43.930Z,88.64
2022-11-16T12:56:55.332Z,88.91
2022-11-16T12:58:13.865Z,88.60
2022-11-16T12:59:31.961Z,88.68
2022-11-16T13:00:47.952Z,88.08
2022-11-16T13:02:03.404Z,88.64
2022-11-16T13:03:19.896Z,88.72
2022-11-16T13:04:26.654Z,89.37
2022-11-16T13:05:44.238Z,89.70
2022-11-16T13:06:52.752Z,89.15
2022-11-16T13:07:58.502Z,88.63
2022-11-16T13:09:08.522Z,87.38
2022-11-16T13:10:16.292Z,87.46
2022-11-16T13:11:23.871Z,86.72
2022-11-16T13:12:27.725Z,87.81
2022-11-16T13:13:38.341Z,87.92
2022-11-16T13:14:45.258Z,87.74
2022-11-16T13:15:48.008Z,88.37
2022-11-16T13:16:52.369Z,88.11
2022-11-16T13:17:59.819Z,87.30
2022-11-16T13:19:07.735Z,88.25
2022-11-16T13:20:24.966Z,87.88
2022-11-16T13:21:41.634Z,87.63
2022-11-16T13:22:53.287Z,87.89
2022-11-16T13:24:15.397Z,88.13
2022-11-16T13:25:25.641Z,87.15
2022-11-16T13:26:33.314Z,87.91
2022-11-16T13:27:42.159Z,86.79
2022-11-16T13:28:54.997Z,86.74
2022-11-16T13:30:04.328Z,86.79
2022-11-16T13:31:11.252Z,87.23
2022-11-16T13:32:20.841Z,86.89
2022-11-16T13:33:33.900Z,87.04
2022-11-16T13:34:40.122Z,85.82
2022-11-16T13:35:42.059Z,85.67
2022-11-16T13:36:47.748Z,85.47
2022-11-16T13:37:51.959Z,85.43
2022-11-16T13:38:54.034Z,85.78
2022-11-16T13:40:28.200Z,85.69
2022-11-16T13:41:33.730Z,85.67
2022-11-16T13:42:44.907Z,85.71
2022-11-16T13:43:48.632Z,86.11
2022-11-16T13:44:52.146Z,85.05
2022-11-16T13:45:58.049Z,85.04
2022-11-16T13:47:05.187Z,85.55
2022-11-16T13:48:17.565Z,85.08
2022-11-16T13:49:23.921Z,85.94
2022-11-16T13:50:37.219Z,85.55
2022-11-16T13:51:39.823Z,85.86
2022-11-16T13:53:36.374Z,85.41
2022-11-16T13:54:44.410Z,86.02
2022-11-16T13:55:43.765Z,85.63
2022-11-16T13:56:49.950Z,85.12
2022-11-16T13:57:56.224Z,85.93
2022-11-16T13:58:59.945Z,85.57
2022-11-16T14:00:11.419Z,85.93
2022-11-16T14:01:15.657Z,85.02
2022-11-16T14:02:30.108Z,85.99
2022-11-16T14:03:38.536Z,85.82
2022-11-16T14:04:56.838Z,86.01
2022-11-16T14:05:59.056Z,85.27
2022-11-16T14:07:02.018Z,86.20
2022-11-16T14:08:51.058Z,85.46
2022-11-16T14:09:52.951Z,86.45
2022-11-16T14:11:02.584Z,85.88
2022-11-16T14:12:38.692Z,86.45
2022-11-16T14:13:44.184Z,85.74
2022-11-16T14:15:12.512Z,86.30
2022-11-16T14:16:48.041Z,86.66
2022-11-16T14:17:51.566Z,86.02
2022-11-16T14:18:56.308Z,86.58
2022-11-16T14:19:58.305Z,86.63
2022-11-16T14:21:09.931Z,86.62
2022-11-16T14:22:28.244Z,86.24
2022-11-16T14:25:13.078Z,86.46
2022-11-16T14:26:23.438Z,86.15
2022-11-16T14:27:34.337Z,86.57
2022-11-16T14:29:00.089Z,85.93
2022-11-16T14:30:06.784Z,86.70
2022-11-16T14:31:16.626Z,86.95
2022-11-16T14:32:23.163Z,86.81
2022-11-16T14:33:32.091Z,86.66
2022-11-16T14:34:44.287Z,86.51
2022-11-16T14:35:52.512Z,86.65
2022-11-16T14:36:56.380Z,85.95
2022-11-16T14:38:00.913Z,88.24
2022-11-16T14:39:17.045Z,90.63
2022-11-16T14:40:21.545Z,89.81
2022-11-16T14:41:24.961Z,88.61